createdAt,value
2022-08-27T04:43:33.404Z,2.7
2022-08-27T04:45:47.794Z,3
2022-08-27T04:48:02.138Z,2.7
2022-08-27T04:50:16.566Z,3.3
2022-08-27T04:52:30.911Z,3
2022-08-27T04:54:46.260Z,2.8
2022-08-27T04:57:01.348Z,3.2
2022-08-27T04:59:15.801Z,3
2022-08-27T05:01:30.227Z,2.8
2022-08-27T05:03:44.581Z,2.5
2022-08-27T05:05:58.989Z,3
2022-08-27T05:08:13.377Z,3.1
2022-08-27T05:10:28.770Z,2.7
2022-08-27T05:12:43.222Z,3.3
2022-08-27T05:14:57.669Z,3.1
2022-08-27T05:17:13.055Z,2.6
2022-08-27T05:19:27.438Z,2.4
2022-08-27T05:21:41.803Z,2.9
2022-08-27T05:23:56.327Z,3.1
2022-08-27T05:26:10.761Z,2.4
2022-08-27T05:28:27.932Z,2.7
2022-08-27T05:30:42.636Z,2.6
2022-08-27T05:32:57.159Z,2.4
2022-08-27T05:35:15.668Z,3
2022-08-27T05:37:28.990Z,2.9
2022-08-27T05:39:44.010Z,2.8
2022-08-27T05:41:58.274Z,2.7
2022-08-27T05:44:39.393Z,2.4
2022-08-27T05:46:30.435Z,2.6
2022-08-27T05:48:44.755Z,3.1
2022-08-27T05:50:59.125Z,2.4
2022-08-27T05:53:13.524Z,2.6
2022-08-27T05:55:27.968Z,2.9
2022-08-27T05:57:42.485Z,3
2022-08-27T05:59:56.873Z,2.8
2022-08-27T06:02:11.501Z,2.7
2022-08-27T06:04:26.066Z,2.5
2022-08-27T06:06:40.345Z,2.7
2022-08-27T06:08:54.678Z,2.8
2022-08-27T06:11:09.943Z,3
2022-08-27T06:13:24.435Z,2.9
2022-08-27T06:15:38.798Z,3
2022-08-27T06:17:53.121Z,2.6
2022-08-27T06:20:07.640Z,2.8
2022-08-27T06:22:22.078Z,2.4
2022-08-27T06:24:36.410Z,2.6
2022-08-27T06:26:50.758Z,3
2022-08-27T06:29:05.109Z,2.6
2022-08-27T06:31:19.587Z,2.5
2022-08-27T06:33:33.939Z,2.4
2022-08-27T06:35:48.284Z,2.4
2022-08-27T06:38:02.666Z,3.1
2022-08-27T06:40:17.042Z,2.7
2022-08-27T06:42:31.335Z,3
2022-08-27T06:44:45.669Z,2.4
2022-08-27T06:47:00.014Z,2.1
2022-08-27T06:49:14.357Z,2.4
2022-08-27T06:51:28.707Z,2.4
2022-08-27T06:53:43.067Z,3.1
2022-08-27T06:55:57.444Z,2.9
2022-08-27T06:58:12.024Z,2.8
2022-08-27T07:00:27.553Z,2.6
2022-08-27T07:02:41.933Z,2.2
2022-08-27T07:04:57.291Z,3
2022-08-27T07:07:13.185Z,2.9
2022-08-27T07:09:28.323Z,3
2022-08-27T07:11:42.725Z,2.5
2022-08-27T07:13:57.056Z,2.6
2022-08-27T07:16:11.484Z,3.4
2022-08-27T07:18:27.962Z,3.2
2022-08-27T07:20:42.287Z,3.1
2022-08-27T07:22:56.649Z,3
2022-08-27T07:25:10.968Z,2.9
2022-08-27T07:27:25.375Z,3
2022-08-27T07:29:40.772Z,3
2022-08-27T07:31:55.106Z,3.1
2022-08-27T07:34:09.486Z,2.7
2022-08-27T07:36:23.840Z,2.9
2022-08-27T07:38:38.229Z,3.3
2022-08-27T07:40:52.568Z,3.2
2022-08-27T07:43:06.907Z,8.3
2022-08-27T07:45:21.227Z,5.5
2022-08-27T07:47:35.779Z,3.4
2022-08-27T07:49:50.097Z,4.4
2022-08-27T07:52:04.467Z,3.7
2022-08-27T07:54:18.840Z,3.6
2022-08-27T07:56:33.198Z,3.4
2022-08-27T07:58:47.544Z,3.5
2022-08-27T08:01:02.298Z,6.9
2022-08-27T08:03:17.187Z,3.1
2022-08-27T08:05:31.392Z,3.6
2022-08-27T08:07:46.096Z,3.7
2022-08-27T08:10:00.552Z,3.5
2022-08-27T08:12:14.930Z,3.7
2022-08-27T08:14:29.305Z,3.4
2022-08-27T08:16:43.803Z,3.9
2022-08-27T08:18:58.152Z,3.2
2022-08-27T08:21:12.519Z,3.8
2022-08-27T08:23:27.065Z,4
2022-08-27T08:25:42.635Z,4
2022-08-27T08:27:57.071Z,4.1
2022-08-27T08:30:12.387Z,4.2
2022-08-27T08:32:26.815Z,4.4
2022-08-27T08:34:41.227Z,4.4
2022-08-27T08:36:56.630Z,4.7
2022-08-27T08:39:10.963Z,5.2
2022-08-27T08:41:25.691Z,5.7
2022-08-27T08:43:40.060Z,5.5
2022-08-27T08:45:54.398Z,5.3
2022-08-27T08:48:09.036Z,5.4
2022-08-27T08:50:24.277Z,5.4
2022-08-27T08:52:38.651Z,5.4
2022-08-27T08:54:53.985Z,5.7
2022-08-27T08:57:08.436Z,5.7
2022-08-27T08:59:22.799Z,4.9
2022-08-27T09:01:37.228Z,5.2
2022-08-27T09:03:51.570Z,4.8
2022-08-27T09:06:05.913Z,4.3
2022-08-27T09:08:33.338Z,4.4
2022-08-27T09:10:37.661Z,4.4
2022-08-27T09:12:52.010Z,4.7
2022-08-27T09:15:06.426Z,4.7
2022-08-27T09:17:21.774Z,4.3
2022-08-27T09:19:36.134Z,4.5
2022-08-27T09:21:51.813Z,4.5
2022-08-27T09:24:06.176Z,4.7
2022-08-27T09:26:20.626Z,4.6
2022-08-27T09:28:35.021Z,4.5
2022-08-27T09:30:49.447Z,4.3
2022-08-27T09:33:03.792Z,4.9
2022-08-27T09:35:18.259Z,5.2
2022-08-27T09:37:34.973Z,5.4
2022-08-27T09:39:48.996Z,5.8
2022-08-27T09:42:03.362Z,5.2
2022-08-27T09:44:17.747Z,5.7
2022-08-27T09:46:32.125Z,6.4
2022-08-27T09:48:47.508Z,8
2022-08-27T09:51:02.836Z,8.1
2022-08-27T09:53:18.189Z,10.3
2022-08-27T09:55:32.561Z,10
2022-08-27T09:57:46.871Z,9.6
2022-08-27T10:00:01.294Z,10.1
2022-08-27T10:02:15.643Z,9.9
2022-08-27T10:04:30.049Z,9.2
2022-08-27T10:06:45.380Z,9.9
2022-08-27T10:09:01.928Z,10
2022-08-27T10:11:15.083Z,9.4
2022-08-27T10:13:29.444Z,8.4
2022-08-27T10:15:49.369Z,7.6
2022-08-27T10:18:03.226Z,7.5
2022-08-27T10:20:21.667Z,7.6
2022-08-27T10:22:36.153Z,7.4
2022-08-27T10:24:50.809Z,8
2022-08-27T10:27:05.253Z,7
2022-08-27T10:29:19.611Z,6.3
2022-08-27T10:31:35.039Z,6.3
2022-08-27T10:33:49.359Z,6
2022-08-27T10:36:04.704Z,6
2022-08-27T10:38:19.085Z,6.1
2022-08-27T10:40:33.546Z,5.8
2022-08-27T10:42:47.863Z,6.4
2022-08-27T10:45:02.228Z,6.2
2022-08-27T10:47:16.614Z,6
2022-08-27T10:49:30.933Z,5.8
2022-08-27T10:51:45.297Z,5.1
2022-08-27T10:53:59.691Z,4.9
2022-08-27T10:56:14.999Z,5.1
2022-08-27T10:58:29.417Z,5.4
2022-08-27T11:00:43.832Z,4.8
2022-08-27T11:02:58.355Z,4.4
2022-08-27T11:05:12.714Z,4.4
2022-08-27T11:07:27.202Z,4.6
2022-08-27T11:09:41.587Z,4.8
2022-08-27T11:12:13.666Z,5.1
2022-08-27T11:14:13.306Z,4.9
2022-08-27T11:16:27.722Z,5.9
2022-08-27T11:18:43.041Z,5.4
2022-08-27T11:20:57.410Z,5.1
2022-08-27T11:23:11.783Z,4.7
2022-08-27T11:25:26.156Z,4.7
2022-08-27T11:27:40.565Z,4.6
2022-08-27T11:29:59.963Z,5
2022-08-27T11:32:12.249Z,5.1
2022-08-27T11:34:26.614Z,5
2022-08-27T11:36:40.962Z,4.7
2022-08-27T11:38:55.343Z,5.2
2022-08-27T11:41:09.668Z,5.1
2022-08-27T11:43:24.097Z,4.8
2022-08-27T11:45:38.665Z,4.4
2022-08-27T11:47:52.965Z,4.7
2022-08-27T11:50:07.376Z,4.7
2022-08-27T11:52:21.916Z,3.8
2022-08-27T11:54:36.278Z,4.5
2022-08-27T11:56:49.773Z,4.2
2022-08-27T11:59:04.103Z,3.8
2022-08-27T12:01:18.491Z,4
2022-08-27T12:03:35.436Z,4
2022-08-27T12:05:49.284Z,4
2022-08-27T12:08:03.839Z,4.3
2022-08-27T12:10:18.205Z,3.9
2022-08-27T12:12:32.594Z,4
2022-08-27T12:14:46.928Z,4
2022-08-27T12:17:01.294Z,4.5
2022-08-27T12:19:15.676Z,4.7
2022-08-27T12:21:30.033Z,4.6
2022-08-27T12:23:44.409Z,4.2
2022-08-27T12:25:58.762Z,3.8
2022-08-27T12:28:13.226Z,3.6
2022-08-27T12:30:27.459Z,3.6
2022-08-27T12:32:42.104Z,3.7
2022-08-27T12:34:59.625Z,4.9
2022-08-27T12:37:13.817Z,4.2
2022-08-27T12:39:30.139Z,4.1
2022-08-27T12:41:45.506Z,4.5
2022-08-27T12:43:59.838Z,4.6
2022-08-27T12:46:14.277Z,4
2022-08-27T12:48:28.605Z,4.8
2022-08-27T12:50:44.017Z,4.3
2022-08-27T12:52:58.340Z,4.6
2022-08-27T12:55:12.707Z,4.2
2022-08-27T12:57:27.082Z,4
2022-08-27T12:59:41.408Z,5.3
2022-08-27T13:01:55.883Z,5.1
2022-08-27T13:04:10.159Z,4.6
2022-08-27T13:06:25.277Z,5.2
2022-08-27T13:08:41.279Z,2.8
2022-08-27T13:10:55.747Z,4.8
2022-08-27T13:13:10.220Z,5.4
2022-08-27T13:15:24.761Z,3.3
2022-08-27T13:17:39.295Z,4.7
2022-08-27T13:19:53.886Z,4.6
2022-08-27T13:22:08.493Z,4.7
2022-08-27T13:24:23.038Z,4.2
2022-08-27T13:26:37.572Z,4.1
2022-08-27T13:28:52.012Z,5.7
2022-08-27T13:31:06.870Z,5.6
2022-08-27T13:33:22.251Z,5
2022-08-27T13:35:36.726Z,4.2
2022-08-27T13:37:51.210Z,4.6
2022-08-27T13:40:05.783Z,5.3
2022-08-27T13:42:21.176Z,3.9
2022-08-27T13:44:35.708Z,3.2
2022-08-27T13:46:50.333Z,3.7
2022-08-27T13:49:05.083Z,3.9
2022-08-27T13:51:19.508Z,5
2022-08-27T13:53:34.114Z,3.6
2022-08-27T13:55:48.692Z,6.3
2022-08-27T13:58:03.315Z,4
2022-08-27T14:00:17.787Z,3.2
2022-08-27T14:02:32.548Z,3.9
2022-08-27T14:04:46.977Z,4.2
2022-08-27T14:07:01.442Z,4.3
2022-08-27T14:09:16.858Z,3.4
2022-08-27T14:11:31.254Z,5.6
2022-08-27T14:13:45.757Z,4.9
2022-08-27T14:16:00.261Z,5.2
2022-08-27T14:18:15.474Z,5.3
2022-08-27T14:20:29.986Z,5.3
2022-08-27T14:22:44.522Z,3.8
2022-08-27T14:24:59.041Z,5.1
2022-08-27T14:27:13.423Z,4.8
2022-08-27T14:29:27.943Z,3.9
2022-08-27T14:31:42.374Z,3.3
2022-08-27T14:33:56.891Z,5.8
2022-08-27T14:36:11.332Z,5.1
2022-08-27T14:38:25.853Z,4.2
2022-08-27T14:40:41.373Z,3.4
2022-08-27T14:42:55.839Z,3.9
2022-08-27T14:45:10.325Z,5.9
2022-08-27T14:47:27.581Z,5.9
2022-08-27T14:49:42.232Z,5.7
2022-08-27T14:51:56.625Z,6.1
2022-08-27T14:54:11.075Z,4.4
2022-08-27T14:56:25.536Z,7.1
2022-08-27T14:58:39.950Z,4.9
2022-08-27T15:00:54.529Z,7.1
2022-08-27T15:03:09.224Z,6.3
2022-08-27T15:05:25.467Z,6.6
2022-08-27T15:07:41.642Z,6
2022-08-27T15:09:56.684Z,5.9
2022-08-27T15:12:15.121Z,6.1
2022-08-27T15:14:28.874Z,5
2022-08-27T15:16:43.054Z,4.9
2022-08-27T15:19:01.001Z,3.7
2022-08-27T15:21:14.914Z,5.3
2022-08-27T15:23:29.390Z,6.2
2022-08-27T15:25:43.788Z,5.1
2022-08-27T15:27:58.463Z,5.3
2022-08-27T15:30:12.927Z,6.3
2022-08-27T15:32:30.031Z,6.1
2022-08-27T15:34:44.396Z,5.7
2022-08-27T15:36:59.793Z,6.3
2022-08-27T15:39:14.246Z,6.5
2022-08-27T15:41:29.604Z,6.1
2022-08-27T15:43:52.269Z,6.2
2022-08-27T15:46:06.688Z,5.8
2022-08-27T15:48:20.973Z,4
2022-08-27T15:50:35.432Z,3.9
2022-08-27T15:52:49.782Z,3.8
2022-08-27T15:55:04.151Z,5.7
2022-08-27T15:57:18.626Z,5.9
2022-08-27T15:59:32.986Z,5.6
2022-08-27T16:01:48.502Z,4.5
2022-08-27T16:04:02.854Z,6.1
2022-08-27T16:06:19.645Z,8.5
2022-08-27T16:08:36.910Z,6.2
2022-08-27T16:10:50.962Z,5.9
2022-08-27T16:13:05.421Z,5.4
2022-08-27T16:15:19.758Z,5.9
2022-08-27T16:17:34.087Z,6.2
2022-08-27T16:19:48.453Z,5.8
2022-08-27T16:22:03.776Z,5.9
2022-08-27T16:24:18.116Z,5.6
2022-08-27T16:26:32.536Z,5.9
2022-08-27T16:28:47.038Z,5.8
2022-08-27T16:31:01.504Z,5.8
2022-08-27T16:33:15.813Z,5.9
2022-08-27T16:35:30.175Z,10.5
2022-08-27T16:37:44.512Z,5.9
2022-08-27T16:39:59.043Z,5.7
2022-08-27T16:42:13.361Z,5.8
2022-08-27T16:44:27.796Z,6.3
2022-08-27T16:46:42.206Z,5.4
2022-08-27T16:49:01.556Z,5.4
2022-08-27T16:51:13.805Z,5
2022-08-27T16:53:28.141Z,4.7
2022-08-27T16:55:42.524Z,5.3
2022-08-27T16:57:56.962Z,5.4
2022-08-27T17:00:11.289Z,5.5
2022-08-27T17:02:30.462Z,6.1
2022-08-27T17:04:47.995Z,5.7
2022-08-27T17:07:00.289Z,5.8
2022-08-27T17:09:14.709Z,6.1
2022-08-27T17:11:29.029Z,7.2
2022-08-27T17:13:43.373Z,6.5
2022-08-27T17:15:57.808Z,4.7
2022-08-27T17:18:12.320Z,4.9
2022-08-27T17:20:26.494Z,5
2022-08-27T17:22:41.865Z,5.3
2022-08-27T17:24:56.232Z,4.9
2022-08-27T17:27:10.568Z,4.7
2022-08-27T17:29:24.930Z,4.3
2022-08-27T17:31:39.351Z,4.7
2022-08-27T17:33:53.684Z,4.3
2022-08-27T17:36:08.094Z,4.5
2022-08-27T17:38:22.445Z,4.1
2022-08-27T17:40:36.916Z,4.5
2022-08-27T17:42:51.181Z,4
2022-08-27T17:45:05.531Z,3.6
2022-08-27T17:47:19.896Z,4
2022-08-27T17:49:34.314Z,3.9
2022-08-27T17:51:49.677Z,3.9
2022-08-27T17:54:04.055Z,4.2
2022-08-27T17:56:20.380Z,4.3
2022-08-27T17:58:34.728Z,4.4
2022-08-27T18:00:49.099Z,4.6
2022-08-27T18:03:04.422Z,4.4
2022-08-27T18:05:19.714Z,4.3
2022-08-27T18:07:39.248Z,4.3
2022-08-27T18:09:50.352Z,4.2
2022-08-27T18:12:04.694Z,4.3
2022-08-27T18:14:20.031Z,4
2022-08-27T18:16:34.404Z,4.2
2022-08-27T18:18:48.718Z,4.3
2022-08-27T18:21:03.044Z,4.5
2022-08-27T18:23:18.392Z,4.4
2022-08-27T18:25:36.248Z,4
2022-08-27T18:27:50.068Z,4.3
2022-08-27T18:30:04.445Z,4
2022-08-27T18:32:19.769Z,3.6
2022-08-27T18:34:34.117Z,3.4
2022-08-27T18:36:48.504Z,3.5
2022-08-27T18:39:02.843Z,3.4
2022-08-27T18:41:17.175Z,3.3
2022-08-27T18:43:31.517Z,3.4
2022-08-27T18:45:45.927Z,3.3
2022-08-27T18:48:00.301Z,3.6
2022-08-27T18:50:17.621Z,3.4
2022-08-27T18:52:31.994Z,3.4
2022-08-27T18:54:46.335Z,3.4
2022-08-27T18:57:00.746Z,3.2
2022-08-27T18:59:15.165Z,3.3
2022-08-27T19:01:29.638Z,3.3
2022-08-27T19:03:43.911Z,3.2
2022-08-27T19:06:00.554Z,3.5
2022-08-27T19:08:16.412Z,3.3
2022-08-27T19:10:30.029Z,3.1
2022-08-27T19:12:45.359Z,2.9
2022-08-27T19:14:59.806Z,3.2
2022-08-27T19:17:14.119Z,3
2022-08-27T19:19:28.489Z,3.1
2022-08-27T19:21:42.852Z,3.2
2022-08-27T19:23:57.207Z,2.9
2022-08-27T19:26:11.549Z,2.8
2022-08-27T19:28:25.892Z,3.4
2022-08-27T19:30:40.286Z,2.9
2022-08-27T19:32:57.047Z,3.1
2022-08-27T19:35:12.017Z,3.4
2022-08-27T19:37:27.345Z,2.6
2022-08-27T19:39:41.781Z,3.2
2022-08-27T19:41:56.115Z,3.3
2022-08-27T19:44:10.559Z,2.8
2022-08-27T19:46:24.935Z,2.8
2022-08-27T19:48:39.300Z,3
2022-08-27T19:50:53.625Z,3.1
2022-08-27T19:53:07.957Z,2.9
2022-08-27T19:55:22.302Z,2.5
2022-08-27T19:57:36.693Z,2.6
2022-08-27T19:59:51.068Z,2.7
2022-08-27T20:02:05.400Z,3
2022-08-27T20:04:19.980Z,2.7
2022-08-27T20:06:34.270Z,3
2022-08-27T20:08:50.639Z,2.9
2022-08-27T20:11:07.553Z,2.9
2022-08-27T20:13:21.769Z,3.1
2022-08-27T20:15:36.127Z,3
2022-08-27T20:17:52.485Z,2.6
2022-08-27T20:20:06.853Z,2.8
2022-08-27T20:22:21.242Z,2.7
2022-08-27T20:24:35.615Z,2.5
2022-08-27T20:26:49.951Z,3
2022-08-27T20:29:04.308Z,2.7
2022-08-27T20:31:18.734Z,3
2022-08-27T20:33:33.030Z,2.3
2022-08-27T20:35:47.355Z,2.8
2022-08-27T20:38:01.807Z,3.1
2022-08-27T20:40:17.229Z,2.6
2022-08-27T20:42:31.556Z,2.9
2022-08-27T20:44:45.911Z,2.6
2022-08-27T20:47:00.279Z,3.1
2022-08-27T20:49:14.629Z,2.8
2022-08-27T20:51:28.977Z,2.9
2022-08-27T20:53:43.297Z,2.3
2022-08-27T20:55:57.627Z,2.6
2022-08-27T20:58:12.303Z,2.9
2022-08-27T21:00:26.555Z,2.6
2022-08-27T21:02:40.989Z,2.4
2022-08-27T21:04:55.352Z,2.6
2022-08-27T21:07:09.760Z,2.5
2022-08-27T21:09:24.143Z,2.7
2022-08-27T21:11:38.608Z,2.3
2022-08-27T21:13:56.371Z,2.8
2022-08-27T21:16:10.324Z,2.4
2022-08-27T21:18:29.432Z,2.5
2022-08-27T21:20:41.961Z,2.3
2022-08-27T21:22:56.338Z,2.4
2022-08-27T21:25:10.725Z,2.3
2022-08-27T21:27:25.151Z,2.3
2022-08-27T21:29:39.582Z,2.5
